首页
METAR-TAF:

METAR-TAF

机场 :

New Richmond Regional Airport

New Richmond, 威斯康辛州, 美国

纬度: 45-08-54N, 经度: 092-32-17W, 海拔: 304米

当前天气观测

该预报发布于17分钟前的16:35 UTC
风速5节,风向西
温度 25°C
湿度 44%
气压 1017 hPa
能見度: 16.1公里
天空无云

METAR: KRNH 261635Z AUTO 26005KT 10SM CLR 25/12 A3003 RMK AO2 T02510122

时间: 11:52 (16:52 UTC)

预报

该预报发布于5小时和30分钟前的11:22 UTC
预报有效从26日的 12点(UTC)到 27日的 12点(UTC)
风速3节,风向多变
能見度: 10公里
少量云层高于25000英尺
从 27日的 0500点(UTC)
风速3节,风向多变
能見度: 10公里
散云层高于15000英尺
从 27日的 0900点(UTC)
风速节,风向
能見度: 10公里
多云层高于15000英尺

TAF: KRNH 261122Z 2612/2712 VRB03KT P6SM FEW250 FM270500 VRB03KT P6SM SCT150 FM270900 00000KT P6SM BKN150

超过4000个机场的气象观测和天气预报(METAR&TAF报告)。

可查询的气象台以黄色和红色小点在地图上表示。

将鼠标移到小点上方,可查看气象台名称。

然后点击查看天气观测和预报。

如需切换地图:点击带黑十字的绿色按钮放大地图;点击带横线的绿色按钮缩小地图;或者点击绿色箭头查看邻近地区的地图。


METAR-TAF: